Time;durP1;ratioP1;P1;durP2;ratioP2;P2;SDS_P1;SDS_P2;PMS_P1;PMS_P2;Temp;Humidity;BMP_temperature;BMP_pressure;BME280_temperature;BME280_humidity;BME280_pressure;Samples;Min_cycle;Max_cycle;Signal;HPM_P1;HPM_P2
2021/06/18 00:01:12;;;;;;;29.80;21.83;;;23.70;99.90;;;;;;5056090;28;20216;-75
2021/06/18 00:03:38;;;;;;;26.30;22.33;;;23.70;99.90;;;;;;5050307;28;20234;-75
2021/06/18 00:06:04;;;;;;;29.20;22.27;;;23.50;99.90;;;;;;5052100;28;20173;-74
2021/06/18 00:08:30;;;;;;;25.93;22.83;;;23.40;99.90;;;;;;5051068;28;20176;-74
2021/06/18 00:10:56;;;;;;;32.50;25.37;;;23.30;99.90;;;;;;5051742;28;20187;-76
2021/06/18 00:13:21;;;;;;;28.77;24.97;;;23.40;99.90;;;;;;5053405;28;20207;-75
2021/06/18 00:15:47;;;;;;;31.83;24.37;;;23.60;99.90;;;;;;5051369;28;20238;-74
2021/06/18 00:18:14;;;;;;;33.53;26.07;;;23.80;99.90;;;;;;5044782;28;20212;-75
2021/06/18 00:20:40;;;;;;;31.73;25.48;;;23.70;99.90;;;;;;5049900;28;20257;-77
2021/06/18 00:23:05;;;;;;;31.30;25.60;;;23.80;99.90;;;;;;5051141;28;20193;-76
2021/06/18 00:25:31;;;;;;;33.17;25.53;;;23.80;99.90;;;;;;5053420;28;20214;-75
2021/06/18 00:27:57;;;;;;;31.03;25.43;;;24.00;99.90;;;;;;5051221;28;20275;-75
2021/06/18 00:30:24;;;;;;;32.90;26.90;;;23.90;99.90;;;;;;5053561;28;20189;-75
2021/06/18 00:32:50;;;;;;;32.03;25.80;;;24.00;99.90;;;;;;5051523;28;20677;-75
2021/06/18 00:35:15;;;;;;;31.87;26.47;;;23.90;99.90;;;;;;5033978;28;20181;-75
2021/06/18 00:37:41;;;;;;;34.70;27.87;;;23.60;99.90;;;;;;5045265;28;20229;-75
2021/06/18 00:40:08;;;;;;;33.70;28.03;;;23.60;99.90;;;;;;5052536;28;20706;-75
2021/06/18 00:42:34;;;;;;;35.73;30.17;;;23.70;99.90;;;;;;5050685;28;20704;-76
2021/06/18 00:45:00;;;;;;;36.10;29.27;;;23.80;99.90;;;;;;5048311;28;20339;-75
2021/06/18 00:47:27;;;;;;;35.93;30.03;;;23.90;99.90;;;;;;5050219;28;20259;-75
2021/06/18 00:49:55;;;;;;;39.13;32.23;;;23.90;99.90;;;;;;5052496;28;20575;-75
2021/06/18 00:52:22;;;;;;;43.80;33.80;;;24.00;99.90;;;;;;5050260;28;20180;-76
2021/06/18 00:54:49;;;;;;;45.23;33.83;;;23.90;99.90;;;;;;5034703;28;20200;-75
2021/06/18 00:57:16;;;;;;;46.17;36.63;;;23.80;99.90;;;;;;5048648;28;20624;-76
2021/06/18 00:59:42;;;;;;;45.27;36.43;;;23.80;99.90;;;;;;5053651;28;20184;-76
2021/06/18 01:02:08;;;;;;;48.70;37.43;;;23.80;99.90;;;;;;5031149;28;20238;-76
2021/06/18 01:04:36;;;;;;;45.50;38.23;;;23.80;99.90;;;;;;5054646;28;20219;-76
2021/06/18 01:07:31;;;;;;;50.47;38.97;;;23.80;99.90;;;;;;5049595;28;20215;-74
2021/06/18 01:10:22;;;;;;;51.17;39.77;;;23.80;99.90;;;;;;5047359;28;20227;-74
2021/06/18 01:13:08;;;;;;;50.50;40.00;;;23.70;99.90;;;;;;5049784;28;20191;-75
2021/06/18 01:16:00;;;;;;;48.13;38.40;;;23.60;99.90;;;;;;5051907;28;20685;-75
2021/06/18 01:18:35;;;;;;;49.27;39.90;;;23.50;99.90;;;;;;5050111;28;20256;-75
2021/06/18 01:21:19;;;;;;;51.40;41.40;;;23.60;99.90;;;;;;5051077;28;20190;-74
2021/06/18 01:24:15;;;;;;;56.40;42.70;;;23.60;99.90;;;;;;5052199;28;20210;-74
2021/06/18 01:27:00;;;;;;;51.20;40.60;;;23.60;99.90;;;;;;5049526;28;20184;-75
2021/06/18 01:29:31;;;;;;;58.07;44.37;;;23.60;99.90;;;;;;5050575;28;20180;-74
2021/06/18 01:32:01;;;;;;;55.30;42.50;;;23.60;99.90;;;;;;5051800;28;20187;-74
2021/06/18 01:34:30;;;;;;;63.13;44.53;;;23.60;99.90;;;;;;5051400;28;20180;-74
2021/06/18 01:37:04;;;;;;;70.90;44.93;;;23.50;99.90;;;;;;5048428;28;20220;-75
2021/06/18 01:39:32;;;;;;;64.10;47.13;;;23.30;99.90;;;;;;5036508;28;20173;-76
2021/06/18 01:42:01;;;;;;;63.00;47.70;;;22.90;99.90;;;;;;5048812;28;20564;-76
2021/06/18 01:44:28;;;;;;;68.83;51.30;;;22.80;99.90;;;;;;5038140;28;20569;-76
2021/06/18 01:46:56;;;;;;;74.33;53.33;;;22.60;99.90;;;;;;5030904;28;20198;-75
2021/06/18 01:49:23;;;;;;;69.37;52.00;;;22.50;99.90;;;;;;5041381;28;20563;-76
2021/06/18 01:51:51;;;;;;;68.47;52.93;;;22.30;99.90;;;;;;5037332;28;20180;-76
2021/06/18 01:54:26;;;;;;;76.83;56.83;;;22.10;99.90;;;;;;5028885;28;20267;-75
2021/06/18 01:56:53;;;;;;;81.47;57.50;;;21.90;99.90;;;;;;5043570;28;20188;-75
2021/06/18 01:59:21;;;;;;;75.23;51.27;;;21.80;99.90;;;;;;5033537;28;20564;-75
2021/06/18 02:01:49;;;;;;;65.20;48.10;;;21.80;99.90;;;;;;5030876;28;20185;-76
2021/06/18 02:04:16;;;;;;;65.23;49.40;;;21.70;99.90;;;;;;5028460;28;20193;-77
2021/06/18 02:06:43;;;;;;;61.70;45.57;;;21.70;99.90;;;;;;5030180;28;20242;-77
2021/06/18 02:09:12;;;;;;;60.73;44.60;;;21.70;99.90;;;;;;5031235;28;20181;-76
2021/06/18 02:11:40;;;;;;;61.20;44.23;;;21.70;99.90;;;;;;5024477;28;20199;-76
2021/06/18 02:14:15;;;;;;;58.53;41.90;;;21.70;99.90;;;;;;5030207;28;20235;-76
2021/06/18 02:16:44;;;;;;;53.30;39.93;;;21.70;99.90;;;;;;5033875;28;20282;-76
2021/06/18 02:19:13;;;;;;;37.73;30.97;;;21.70;99.90;;;;;;5026463;28;20714;-76
2021/06/18 02:21:40;;;;;;;37.83;28.17;;;21.40;99.90;;;;;;5026931;28;20191;-75
2021/06/18 02:24:06;;;;;;;38.83;29.30;;;21.20;99.90;;;;;;5029613;28;20697;-75
2021/06/18 02:26:32;;;;;;;46.87;34.43;;;21.00;99.90;;;;;;5031120;28;20180;-76
2021/06/18 02:28:58;;;;;;;49.60;36.53;;;21.00;99.90;;;;;;5030236;28;20193;-75
2021/06/18 02:31:26;;;;;;;46.73;34.40;;;20.90;99.90;;;;;;5033111;28;20185;-75
2021/06/18 02:33:52;;;;;;;46.07;34.27;;;20.90;99.90;;;;;;5031924;28;20226;-76
2021/06/18 02:36:20;;;;;;;43.77;33.17;;;20.90;99.90;;;;;;5032395;28;20606;-75
2021/06/18 02:38:47;;;;;;;45.27;33.97;;;21.00;99.90;;;;;;5040538;28;20203;-75
2021/06/18 02:41:13;;;;;;;43.77;33.77;;;21.00;99.90;;;;;;5031185;28;20181;-75
2021/06/18 02:43:40;;;;;;;47.30;35.70;;;20.90;99.90;;;;;;5034092;28;20227;-75
2021/06/18 02:46:06;;;;;;;47.43;36.13;;;20.90;99.90;;;;;;5052932;28;20214;-75
2021/06/18 02:48:40;;;;;;;44.53;35.07;;;20.90;99.90;;;;;;5052308;28;20172;-75
2021/06/18 02:51:17;;;;;;;43.37;35.57;;;20.80;99.90;;;;;;5054648;28;20240;-75
2021/06/18 02:53:55;;;;;;;43.73;34.40;;;20.90;99.90;;;;;;5053923;28;20187;-75
2021/06/18 02:56:42;;;;;;;38.87;32.33;;;20.90;99.90;;;;;;5053383;28;20547;-75
2021/06/18 02:59:35;;;;;;;39.70;32.10;;;20.80;99.90;;;;;;5052481;28;20210;-75
2021/06/18 03:02:04;;;;;;;38.23;31.90;;;20.90;99.90;;;;;;5055940;28;20194;-75
2021/06/18 03:04:33;;;;;;;37.50;30.83;;;20.90;99.90;;;;;;5050738;28;20195;-75
2021/06/18 03:07:12;;;;;;;39.53;31.27;;;21.00;99.90;;;;;;5052926;28;20192;-75
2021/06/18 03:09:43;;;;;;;37.57;31.43;;;21.10;99.90;;;;;;5051537;28;20194;-76
2021/06/18 03:12:11;;;;;;;37.00;29.77;;;21.20;99.90;;;;;;5033068;28;20625;-75
2021/06/18 03:14:37;;;;;;;36.03;29.63;;;21.20;99.90;;;;;;5033086;28;20682;-75
2021/06/18 03:17:07;;;;;;;35.47;28.53;;;21.10;99.90;;;;;;5052576;28;20183;-76
2021/06/18 03:19:39;;;;;;;34.70;28.43;;;21.20;99.90;;;;;;5052093;28;20267;-75
2021/06/18 03:22:08;;;;;;;34.30;28.20;;;21.00;99.90;;;;;;5049696;28;20563;-75
2021/06/18 03:24:34;;;;;;;35.30;29.53;;;21.00;99.90;;;;;;5053165;28;20524;-75
2021/06/18 03:27:01;;;;;;;37.03;30.60;;;21.20;99.90;;;;;;5050426;28;20281;-76
2021/06/18 03:29:28;;;;;;;34.63;29.97;;;21.30;99.90;;;;;;5053939;28;20552;-75
2021/06/18 03:31:55;;;;;;;32.90;28.97;;;21.40;99.90;;;;;;5049828;28;20185;-76
2021/06/18 03:34:24;;;;;;;35.50;29.83;;;21.50;99.90;;;;;;5049960;28;20658;-76
2021/06/18 03:36:51;;;;;;;35.50;30.27;;;21.60;99.90;;;;;;5053711;28;20257;-75
2021/06/18 03:39:19;;;;;;;36.93;29.70;;;21.60;99.90;;;;;;5047729;28;20222;-76
2021/06/18 03:41:44;;;;;;;38.30;29.93;;;21.60;99.90;;;;;;5049687;28;20199;-76
2021/06/18 03:44:11;;;;;;;34.40;28.60;;;21.70;99.90;;;;;;5047877;28;20239;-76
2021/06/18 03:46:38;;;;;;;33.83;29.60;;;21.70;99.90;;;;;;5054962;28;20208;-75
2021/06/18 03:49:06;;;;;;;33.50;29.83;;;21.70;99.90;;;;;;5052774;28;20543;-76
2021/06/18 03:51:34;;;;;;;36.70;31.27;;;21.80;99.90;;;;;;5048685;28;20181;-76
2021/06/18 03:53:59;;;;;;;35.43;30.30;;;21.90;99.90;;;;;;5051618;28;20650;-76
2021/06/18 03:56:25;;;;;;;34.27;29.20;;;21.80;99.90;;;;;;5050814;28;20223;-76
2021/06/18 03:58:53;;;;;;;36.80;29.60;;;21.80;99.90;;;;;;5051080;28;20200;-76
2021/06/18 04:01:19;;;;;;;33.57;29.27;;;21.80;99.90;;;;;;5051033;28;20188;-76
2021/06/18 04:03:49;;;;;;;38.30;32.53;;;21.70;99.90;;;;;;5033366;28;20555;-75
2021/06/18 04:06:15;;;;;;;37.03;30.47;;;21.70;99.90;;;;;;5057816;28;20165;-75
2021/06/18 04:08:42;;;;;;;37.63;32.57;;;21.70;99.90;;;;;;5050122;28;20202;-75
2021/06/18 04:11:09;;;;;;;41.33;33.53;;;21.70;99.90;;;;;;5051866;28;20191;-75
2021/06/18 04:13:38;;;;;;;36.30;32.37;;;21.80;99.90;;;;;;5045603;28;20218;-75
2021/06/18 04:16:06;;;;;;;36.40;31.53;;;21.60;99.90;;;;;;5049314;28;20184;-75
2021/06/18 04:18:33;;;;;;;38.50;32.20;;;21.60;99.90;;;;;;5052237;28;20208;-75
2021/06/18 04:21:08;;;;;;;38.73;33.40;;;21.70;99.90;;;;;;5048805;28;20192;-75
2021/06/18 04:23:33;;;;;;;38.47;34.00;;;21.80;99.90;;;;;;5050154;28;20180;-74
2021/06/18 04:26:00;;;;;;;36.87;32.77;;;21.90;99.90;;;;;;5045123;28;20548;-75
2021/06/18 04:28:28;;;;;;;37.80;32.60;;;21.90;99.90;;;;;;5053578;28;20233;-75
2021/06/18 04:30:54;;;;;;;40.47;33.83;;;21.90;99.90;;;;;;5044452;28;20213;-74
2021/06/18 04:33:19;;;;;;;42.83;35.70;;;21.80;99.90;;;;;;5049548;28;20198;-74
2021/06/18 04:35:45;;;;;;;41.67;35.63;;;21.90;99.90;;;;;;5049221;28;20187;-74
2021/06/18 04:38:11;;;;;;;40.83;35.73;;;22.00;99.90;;;;;;5045585;28;20283;-74
2021/06/18 04:40:37;;;;;;;43.03;35.43;;;22.00;99.90;;;;;;5052832;28;20271;-74
2021/06/18 04:43:04;;;;;;;42.60;36.47;;;21.90;99.90;;;;;;5047877;28;20216;-73
2021/06/18 04:45:29;;;;;;;41.27;36.87;;;21.90;99.90;;;;;;5050421;28;20180;-74
2021/06/18 04:47:57;;;;;;;39.67;34.93;;;21.90;99.90;;;;;;5050877;28;20252;-74
2021/06/18 04:50:23;;;;;;;43.67;36.60;;;21.90;99.90;;;;;;5046879;28;20180;-74
2021/06/18 04:52:49;;;;;;;39.93;33.57;;;22.00;99.90;;;;;;5053407;28;20703;-74
2021/06/18 04:55:16;;;;;;;40.83;34.70;;;22.00;99.90;;;;;;5031666;28;20291;-74
2021/06/18 04:57:43;;;;;;;40.67;34.63;;;22.10;99.90;;;;;;5048879;28;20230;-74
2021/06/18 05:00:09;;;;;;;36.77;31.47;;;22.10;99.90;;;;;;5048518;28;20180;-74
2021/06/18 05:02:35;;;;;;;37.57;32.30;;;22.00;99.90;;;;;;5051389;28;20184;-74
2021/06/18 05:05:02;;;;;;;39.47;32.33;;;22.00;99.90;;;;;;5051821;28;20233;-74
2021/06/18 05:07:28;;;;;;;36.27;31.07;;;21.90;99.90;;;;;;5032712;28;20248;-74
2021/06/18 05:09:54;;;;;;;36.47;31.13;;;22.00;99.90;;;;;;5048230;28;20742;-74
2021/06/18 05:12:20;;;;;;;35.30;29.63;;;22.00;99.90;;;;;;5047115;28;20188;-75
2021/06/18 05:14:46;;;;;;;36.37;29.27;;;22.10;99.90;;;;;;5049535;28;20199;-73
2021/06/18 05:17:11;;;;;;;36.13;30.93;;;22.10;99.90;;;;;;5050831;28;20244;-73
2021/06/18 05:19:37;;;;;;;35.77;30.30;;;22.10;99.90;;;;;;5045384;28;20222;-73
2021/06/18 05:22:03;;;;;;;33.20;29.30;;;22.20;99.90;;;;;;5056162;28;20602;-74
2021/06/18 05:24:29;;;;;;;32.97;29.07;;;22.20;99.90;;;;;;5045711;28;20207;-74
2021/06/18 05:26:55;;;;;;;35.27;29.77;;;22.20;99.90;;;;;;5049754;28;20184;-74
2021/06/18 05:29:21;;;;;;;32.50;28.87;;;22.20;99.90;;;;;;5046670;28;20258;-74
2021/06/18 05:31:47;;;;;;;32.50;27.80;;;22.30;99.90;;;;;;5045628;28;20180;-74
2021/06/18 05:34:13;;;;;;;31.33;27.03;;;22.30;99.90;;;;;;5052006;28;20195;-73
2021/06/18 05:36:43;;;;;;;34.07;28.23;;;22.40;99.90;;;;;;5031068;28;20193;-73
2021/06/18 05:39:09;;;;;;;29.90;25.20;;;22.40;99.90;;;;;;5045159;28;20685;-74
2021/06/18 05:41:35;;;;;;;30.60;27.30;;;22.40;99.90;;;;;;5043668;28;20195;-74
2021/06/18 05:44:01;;;;;;;31.10;26.93;;;22.40;99.90;;;;;;5048483;28;20231;-77
2021/06/18 05:46:27;;;;;;;33.47;27.20;;;22.50;99.90;;;;;;5049432;28;20183;-76
2021/06/18 05:48:53;;;;;;;29.67;26.33;;;22.60;99.90;;;;;;5032671;28;20674;-76
2021/06/18 05:51:18;;;;;;;31.17;25.37;;;22.60;99.90;;;;;;5035324;28;20195;-76
2021/06/18 05:53:44;;;;;;;30.80;26.70;;;22.60;99.90;;;;;;5049371;28;20211;-76
2021/06/18 05:56:10;;;;;;;30.20;25.00;;;22.50;99.90;;;;;;5033726;28;20702;-76
2021/06/18 05:58:35;;;;;;;28.73;24.83;;;22.60;99.90;;;;;;5048033;28;20315;-75
2021/06/18 06:01:01;;;;;;;31.03;25.60;;;22.70;99.90;;;;;;5051566;28;20716;-75
2021/06/18 06:03:27;;;;;;;29.00;22.80;;;22.90;99.90;;;;;;5048684;28;20208;-76
2021/06/18 06:05:53;;;;;;;25.50;20.63;;;23.30;99.90;;;;;;5047239;28;20185;-76
2021/06/18 06:08:19;;;;;;;24.70;21.10;;;23.60;99.90;;;;;;5055914;28;20192;-76
2021/06/18 06:10:47;;;;;;;26.63;21.80;;;23.60;99.90;;;;;;5034909;28;20655;-76
2021/06/18 06:13:13;;;;;;;31.83;21.80;;;23.70;99.90;;;;;;5053439;28;20188;-76
2021/06/18 06:15:39;;;;;;;28.63;21.33;;;23.70;99.90;;;;;;5055526;28;20192;-76
2021/06/18 06:18:04;;;;;;;24.50;20.20;;;23.90;99.90;;;;;;5053226;28;20205;-76
2021/06/18 06:20:30;;;;;;;23.00;18.57;;;24.10;99.90;;;;;;5063590;28;20206;-75
2021/06/18 06:22:56;;;;;;;25.47;19.50;;;24.40;99.90;;;;;;5033774;28;20218;-75
2021/06/18 06:25:22;;;;;;;23.47;18.67;;;24.60;99.90;;;;;;5051646;28;20173;-77
2021/06/18 06:27:47;;;;;;;21.47;18.40;;;24.70;99.90;;;;;;5052649;28;20196;-76
2021/06/18 06:30:13;;;;;;;19.97;16.23;;;24.70;99.90;;;;;;5056083;28;20187;-76
2021/06/18 06:32:40;;;;;;;20.43;16.07;;;24.70;99.90;;;;;;5052182;28;20200;-76
2021/06/18 06:35:06;;;;;;;17.87;15.30;;;24.80;99.90;;;;;;5051781;28;20189;-77
2021/06/18 06:37:31;;;;;;;20.15;15.75;;;25.00;99.90;;;;;;5039955;28;20200;-76
2021/06/18 06:39:57;;;;;;;18.58;15.85;;;25.10;99.90;;;;;;5049536;28;20643;-77
2021/06/18 06:42:23;;;;;;;17.83;14.88;;;25.40;99.90;;;;;;5050079;28;20181;-76
2021/06/18 06:44:49;;;;;;;18.23;14.85;;;26.00;99.90;;;;;;5046613;28;20228;-76
2021/06/18 06:47:14;;;;;;;20.13;13.93;;;27.30;99.90;;;;;;5055979;28;20655;-77
2021/06/18 06:49:40;;;;;;;16.15;11.98;;;28.40;99.90;;;;;;5052677;28;20367;-77
2021/06/18 06:52:07;;;;;;;16.63;12.10;;;29.10;99.90;;;;;;5053965;28;20563;-76
2021/06/18 06:54:32;;;;;;;15.57;11.02;;;29.50;99.90;;;;;;5056826;28;20227;-76
2021/06/18 06:56:58;;;;;;;15.38;11.00;;;29.20;99.90;;;;;;5051409;28;20180;-74
2021/06/18 06:59:25;;;;;;;17.40;11.13;;;28.80;99.90;;;;;;5052874;28;20234;-76
2021/06/18 07:01:51;;;;;;;14.30;11.27;;;27.80;99.90;;;;;;5054508;28;20180;-76
2021/06/18 07:04:16;;;;;;;15.73;10.82;;;27.80;99.90;;;;;;5052176;28;20238;-77
2021/06/18 07:06:44;;;;;;;13.88;10.15;;;27.90;99.90;;;;;;5057862;28;20169;-76
2021/06/18 07:09:10;;;;;;;15.88;11.13;;;28.00;99.90;;;;;;5034106;28;20283;-77
2021/06/18 07:11:36;;;;;;;17.73;11.13;;;27.80;99.90;;;;;;5054041;28;20180;-77
2021/06/18 07:14:02;;;;;;;16.42;10.48;;;28.20;99.90;;;;;;5051832;28;20523;-76
2021/06/18 07:16:28;;;;;;;13.70;9.43;;;28.80;99.90;;;;;;5054546;28;20195;-77
2021/06/18 07:18:55;;;;;;;13.93;8.70;;;30.50;99.90;;;;;;5054097;28;20212;-78
2021/06/18 07:21:20;;;;;;;13.02;8.93;;;31.00;99.90;;;;;;5054862;28;20211;-74
2021/06/18 07:23:46;;;;;;;11.23;8.82;;;31.30;99.90;;;;;;5050269;28;20210;-75
2021/06/18 07:26:12;;;;;;;11.50;8.20;;;31.70;99.90;;;;;;5052853;28;20647;-75
2021/06/18 07:28:38;;;;;;;15.75;8.48;;;32.40;99.90;;;;;;5053066;28;20242;-76
2021/06/18 07:31:04;;;;;;;11.43;7.38;;;33.20;99.90;;;;;;5048521;28;20188;-76
2021/06/18 07:33:30;;;;;;;12.55;7.90;;;34.00;99.90;;;;;;5053355;28;20176;-77
2021/06/18 07:35:55;;;;;;;14.07;8.30;;;34.20;99.90;;;;;;5051037;28;20199;-77
2021/06/18 07:38:21;;;;;;;15.45;7.93;;;34.60;99.90;;;;;;5034418;28;20204;-76
2021/06/18 07:40:47;;;;;;;14.85;7.53;;;35.10;99.90;;;;;;5046680;28;20184;-77
2021/06/18 07:43:12;;;;;;;13.50;7.75;;;36.20;99.90;;;;;;5050625;28;20204;-76
2021/06/18 07:45:38;;;;;;;17.65;7.60;;;36.90;99.90;;;;;;5053677;28;20175;-76
2021/06/18 07:48:09;;;;;;;11.90;6.80;;;36.40;99.90;;;;;;5056685;28;20679;-77
2021/06/18 07:50:36;;;;;;;13.15;8.15;;;35.30;99.90;;;;;;5053321;28;20647;-77
2021/06/18 07:53:02;;;;;;;15.10;7.80;;;35.40;99.90;;;;;;5037439;28;20532;-76
2021/06/18 07:55:28;;;;;;;15.18;8.02;;;35.00;99.90;;;;;;5047803;28;20219;-76
2021/06/18 07:57:54;;;;;;;15.45;8.20;;;34.20;99.90;;;;;;5035763;28;20232;-76
2021/06/18 08:00:20;;;;;;;13.13;7.47;;;34.20;99.90;;;;;;5052990;28;20192;-76
2021/06/18 08:02:46;;;;;;;14.68;7.45;;;35.40;99.90;;;;;;5052960;28;20188;-76
2021/06/18 08:05:14;;;;;;;14.20;7.25;;;37.10;99.90;;;;;;5035038;28;20182;-76
2021/06/18 08:07:42;;;;;;;14.88;7.40;;;36.50;99.90;;;;;;5049110;28;20188;-76
2021/06/18 08:10:10;;;;;;;12.07;7.00;;;36.80;99.90;;;;;;5051619;28;20263;-77
2021/06/18 08:12:36;;;;;;;13.75;7.57;;;36.10;99.90;;;;;;5050200;28;20175;-76
2021/06/18 08:15:03;;;;;;;10.77;6.15;;;36.10;99.90;;;;;;5052932;28;20199;-77
2021/06/18 08:17:29;;;;;;;13.25;6.35;;;36.70;99.90;;;;;;5052411;28;20194;-77
2021/06/18 08:19:54;;;;;;;13.25;7.10;;;37.00;98.20;;;;;;5051044;28;20247;-78
2021/06/18 08:22:20;;;;;;;13.65;6.63;;;36.30;99.00;;;;;;5045692;28;20199;-77
2021/06/18 08:24:46;;;;;;;11.70;6.45;;;35.90;98.80;;;;;;5035030;28;20617;-77
2021/06/18 08:27:12;;;;;;;15.13;6.85;;;35.40;99.90;;;;;;5053538;28;20189;-76
2021/06/18 08:29:38;;;;;;;10.13;5.82;;;34.70;99.90;;;;;;5052209;28;20264;-76
2021/06/18 08:32:04;;;;;;;15.48;6.82;;;35.00;99.90;;;;;;5054752;28;20184;-77
2021/06/18 08:34:30;;;;;;;13.88;5.95;;;35.50;99.90;;;;;;5034598;28;20552;-76
2021/06/18 08:36:55;;;;;;;13.88;6.20;;;35.50;99.10;;;;;;5050107;28;20182;-77
2021/06/18 08:39:21;;;;;;;15.75;5.88;;;35.10;99.90;;;;;;5048303;28;20258;-76
2021/06/18 08:41:48;;;;;;;14.60;5.88;;;35.60;98.70;;;;;;5051732;28;20260;-76
2021/06/18 08:44:17;;;;;;;11.63;5.47;;;36.20;99.10;;;;;;5038010;28;20279;-76
2021/06/18 08:46:43;;;;;;;9.57;5.47;;;36.80;98.10;;;;;;5031064;28;20182;-77
2021/06/18 08:49:08;;;;;;;13.63;5.60;;;38.10;96.10;;;;;;4998470;28;20185;-77
2021/06/18 08:51:34;;;;;;;9.40;5.35;;;39.10;94.50;;;;;;5016198;28;20660;-77
2021/06/18 08:54:00;;;;;;;11.55;5.28;;;40.40;91.00;;;;;;5032227;28;20648;-76
2021/06/18 08:56:26;;;;;;;12.27;5.53;;;39.80;90.50;;;;;;5028782;28;20193;-77
2021/06/18 08:58:52;;;;;;;7.95;5.13;;;39.20;90.40;;;;;;5027343;28;20213;-77
2021/06/18 09:01:17;;;;;;;12.25;5.68;;;39.40;89.90;;;;;;5031512;28;20207;-76
2021/06/18 09:03:45;;;;;;;11.57;5.25;;;38.50;90.30;;;;;;5016192;28;20185;-77
2021/06/18 09:06:44;;;;;;;10.05;5.00;;;39.40;91.70;;;;;;5027390;28;20181;-77
2021/06/18 09:09:15;;;;;;;12.13;5.03;;;38.30;89.70;;;;;;5030930;28;20222;-76
2021/06/18 09:11:49;;;;;;;11.30;4.82;;;38.10;89.90;;;;;;5017029;28;20178;-77
2021/06/18 09:14:20;;;;;;;9.98;4.15;;;38.40;91.10;;;;;;5030502;28;20732;-76
2021/06/18 09:17:11;;;;;;;9.80;4.47;;;39.40;88.50;;;;;;5019205;28;20185;-77
2021/06/18 09:19:40;;;;;;;8.75;4.28;;;39.00;87.90;;;;;;5028316;28;20664;-77
2021/06/18 09:22:09;;;;;;;11.73;3.63;;;39.30;86.30;;;;;;5037134;28;20530;-77
2021/06/18 09:24:38;;;;;;;9.18;3.85;;;39.30;85.70;;;;;;5027631;28;20189;-77
2021/06/18 09:27:05;;;;;;;11.75;4.30;;;40.20;82.30;;;;;;5033202;28;20268;-77
2021/06/18 09:29:32;;;;;;;8.88;4.10;;;39.90;82.20;;;;;;5032668;28;20196;-77
2021/06/18 09:32:06;;;;;;;9.43;3.88;;;39.30;79.70;;;;;;5031595;28;20246;-77
2021/06/18 09:35:00;;;;;;;9.07;4.30;;;39.20;81.60;;;;;;5012523;28;20195;-77
2021/06/18 09:37:36;;;;;;;9.23;3.72;;;39.20;83.20;;;;;;5031065;28;20207;-77
2021/06/18 09:40:09;;;;;;;13.25;4.07;;;39.30;85.00;;;;;;5031005;28;20263;-78
2021/06/18 09:42:55;;;;;;;12.05;3.75;;;40.30;79.90;;;;;;5034863;28;20185;-76
2021/06/18 09:45:33;;;;;;;10.00;3.50;;;41.00;76.40;;;;;;5039405;28;20701;-77
2021/06/18 09:48:21;;;;;;;9.77;3.65;;;41.50;74.30;;;;;;5036647;28;20234;-77
2021/06/18 09:50:49;;;;;;;10.23;3.40;;;42.80;74.00;;;;;;5053256;28;20259;-77
2021/06/18 09:53:22;;;;;;;10.50;3.45;;;44.00;68.00;;;;;;5035685;28;20597;-76
2021/06/18 09:56:07;;;;;;;8.45;3.80;;;43.40;65.50;;;;;;5054876;28;20260;-77
2021/06/18 09:58:38;;;;;;;9.25;3.45;;;42.40;64.80;;;;;;5053904;28;20707;-77
2021/06/18 10:01:22;;;;;;;8.07;3.53;;;42.70;66.00;;;;;;5051786;28;20258;-77
2021/06/18 10:04:01;;;;;;;8.45;3.50;;;43.50;64.80;;;;;;5051211;28;20188;-76
2021/06/18 10:06:37;;;;;;;8.45;3.80;;;43.10;65.00;;;;;;5049035;28;20196;-77
2021/06/18 10:09:05;;;;;;;8.38;3.72;;;42.50;62.90;;;;;;5058818;28;20262;-76
2021/06/18 10:11:33;;;;;;;8.43;3.60;;;41.90;66.30;;;;;;5053727;28;20659;-77
2021/06/18 10:13:59;;;;;;;8.77;3.42;;;42.90;64.50;;;;;;5054681;28;20239;-76
2021/06/18 10:16:26;;;;;;;9.57;3.85;;;43.50;63.50;;;;;;5053100;28;20287;-77
2021/06/18 10:18:56;;;;;;;9.93;3.58;;;43.30;60.70;;;;;;5053925;28;20251;-74
2021/06/18 10:21:23;;;;;;;9.05;3.70;;;43.20;62.40;;;;;;5037127;28;20176;-74
2021/06/18 10:23:54;;;;;;;10.35;3.47;;;43.40;59.90;;;;;;5034640;28;20187;-76
2021/06/18 10:26:21;;;;;;;7.40;3.63;;;41.40;60.40;;;;;;5053572;28;20184;-76
2021/06/18 10:28:57;;;;;;;7.60;3.20;;;40.00;63.30;;;;;;5053067;28;20191;-76
2021/06/18 10:31:32;;;;;;;8.10;3.15;;;40.60;64.80;;;;;;5052704;28;20176;-76
2021/06/18 10:34:09;;;;;;;8.77;3.38;;;41.20;64.50;;;;;;5058563;28;20584;-76
2021/06/18 10:36:36;;;;;;;8.88;3.50;;;41.80;61.40;;;;;;5052590;28;20195;-77
2021/06/18 10:39:15;;;;;;;9.60;3.70;;;42.60;62.10;;;;;;5055365;28;20211;-77
2021/06/18 10:41:45;;;;;;;9.55;3.53;;;43.40;62.40;;;;;;5037223;28;20184;-77
2021/06/18 10:44:12;;;;;;;9.10;3.40;;;44.10;59.40;;;;;;5044592;28;20229;-77
2021/06/18 10:46:38;;;;;;;7.40;3.67;;;43.00;58.70;;;;;;5032820;28;20184;-76
2021/06/18 10:49:11;;;;;;;6.95;3.30;;;41.60;58.30;;;;;;5055291;28;20188;-76
2021/06/18 10:51:40;;;;;;;8.20;3.60;;;41.10;59.20;;;;;;5057858;28;20184;-76
2021/06/18 10:54:06;;;;;;;10.40;3.83;;;41.10;60.00;;;;;;5034145;28;20528;-77
2021/06/18 10:56:47;;;;;;;6.35;3.50;;;41.70;59.70;;;;;;5054195;28;20180;-77
2021/06/18 10:59:19;;;;;;;11.02;3.58;;;41.00;58.40;;;;;;5050724;28;20713;-77
2021/06/18 11:01:46;;;;;;;7.97;3.45;;;41.90;58.40;;;;;;5038192;28;20173;-78
2021/06/18 11:04:12;;;;;;;21.33;4.28;;;42.00;58.90;;;;;;5051159;28;20666;-77
2021/06/18 11:06:48;;;;;;;6.05;3.58;;;42.30;58.20;;;;;;5055051;28;20165;-76
2021/06/18 11:09:40;;;;;;;9.43;3.85;;;41.50;58.50;;;;;;5045924;28;20281;-76
2021/06/18 11:12:27;;;;;;;7.95;3.38;;;41.50;58.40;;;;;;5051696;28;20235;-78
2021/06/18 11:14:54;;;;;;;7.57;3.28;;;42.70;57.40;;;;;;5052424;28;20193;-76
2021/06/18 11:17:48;;;;;;;8.23;3.70;;;42.60;57.50;;;;;;5053955;28;20200;-77
2021/06/18 11:20:14;;;;;;;8.43;3.08;;;41.80;55.50;;;;;;5047807;28;20189;-76
2021/06/18 11:22:52;;;;;;;8.15;3.03;;;41.40;56.10;;;;;;5050131;28;20539;-76
2021/06/18 11:25:36;;;;;;;5.47;3.30;;;41.20;55.60;;;;;;5032047;28;20604;-78
2021/06/18 11:28:27;;;;;;;5.85;3.42;;;40.20;58.00;;;;;;5046023;28;20185;-75
2021/06/18 11:31:03;;;;;;;7.07;3.50;;;40.10;58.30;;;;;;5053946;28;20184;-76
2021/06/18 11:33:41;;;;;;;7.47;3.45;;;41.20;57.90;;;;;;5048790;28;20207;-76
2021/06/18 11:36:32;;;;;;;7.97;3.92;;;41.30;57.70;;;;;;5048042;28;20287;-75
2021/06/18 11:38:59;;;;;;;6.63;3.65;;;40.20;58.10;;;;;;5043336;28;20349;-76
2021/06/18 11:41:33;;;;;;;9.70;3.75;;;39.10;59.70;;;;;;5051517;28;20203;-77
2021/06/18 11:44:03;;;;;;;10.32;3.75;;;40.00;59.80;;;;;;5055474;28;20231;-75
2021/06/18 11:46:31;;;;;;;11.48;3.90;;;40.30;57.60;;;;;;5053482;28;20190;-75
2021/06/18 11:49:21;;;;;;;7.40;3.60;;;40.60;58.80;;;;;;5050433;28;20190;-75
2021/06/18 11:51:52;;;;;;;7.22;3.63;;;39.90;59.20;;;;;;5052552;28;20193;-75
2021/06/18 11:54:29;;;;;;;8.98;3.65;;;40.00;59.40;;;;;;5056766;28;20188;-76
2021/06/18 11:57:22;;;;;;;7.22;3.28;;;39.40;58.60;;;;;;5034270;28;20192;-75
2021/06/18 11:59:58;;;;;;;7.82;3.60;;;38.10;60.00;;;;;;5034660;28;20176;-77
2021/06/18 12:02:30;;;;;;;7.97;3.90;;;37.80;64.90;;;;;;5034550;28;20191;-76
2021/06/18 12:05:10;;;;;;;6.30;3.80;;;37.50;62.10;;;;;;5051141;28;20188;-75
2021/06/18 12:07:36;;;;;;;10.75;3.97;;;36.70;66.30;;;;;;5052645;28;20591;-76
2021/06/18 12:10:05;;;;;;;10.23;4.18;;;36.00;66.70;;;;;;5048562;28;20174;-76
2021/06/18 12:12:43;;;;;;;9.15;4.20;;;35.60;66.90;;;;;;5038411;28;20595;-76
2021/06/18 12:15:45;;;;;;;11.38;4.05;;;35.30;68.20;;;;;;5051163;28;20188;-77
2021/06/18 12:18:11;;;;;;;8.55;4.22;;;35.10;68.80;;;;;;5031975;28;20235;-77
2021/06/18 12:20:43;;;;;;;8.93;3.83;;;35.10;70.70;;;;;;5050468;28;20203;-77
2021/06/18 12:23:15;;;;;;;11.40;4.30;;;34.80;68.70;;;;;;5051877;28;20245;-76
2021/06/18 12:25:42;;;;;;;7.22;4.22;;;34.40;69.20;;;;;;5034777;28;20617;-76
2021/06/18 12:28:09;;;;;;;9.93;4.30;;;34.00;70.80;;;;;;5046104;28;20173;-76
2021/06/18 12:30:38;;;;;;;8.10;4.07;;;33.70;72.50;;;;;;5048664;28;20596;-76
2021/06/18 12:33:06;;;;;;;11.73;4.00;;;33.70;71.30;;;;;;5051534;28;20207;-76
2021/06/18 12:35:52;;;;;;;12.45;4.30;;;33.40;72.10;;;;;;5054942;28;20180;-75
2021/06/18 12:38:17;;;;;;;9.63;4.03;;;33.00;74.20;;;;;;5033175;28;20712;-77
2021/06/18 12:40:48;;;;;;;9.38;4.10;;;33.30;75.00;;;;;;5023394;28;20181;-76
2021/06/18 12:43:15;;;;;;;9.48;4.45;;;33.00;72.10;;;;;;5030618;28;20208;-76
2021/06/18 12:45:52;;;;;;;10.40;4.30;;;32.90;74.20;;;;;;5031105;28;20168;-76